• Join FlightAware (Why Join?)
  • Login
  • US Flag 
02:21AM EDT


 

Airport Tracker/Info


-or-


 

Live Flight TrackerFlight Track Log ✈ FLG3862 ✈ 23-Apr-2013 ✈ KDTW - KBTV

Flight Track Log - Related Links

Times and Time Zones

All times are in EDT time to prevent confusion due to time zone crossing. See the FLG3862 flight status page for this flight to view local times or setup timezone preferences in your user account.

Time Position Orientation Groundspeed Altitude Reporting Facility
EDT Latitude Longitude Course Direction KTS MPH feet Rate Location/Type
10:42AM 42.1994 -83.3581 173° South 159 183 1,700  Level Cleveland Center
10:43AM 42.1539 -83.3506 173° South 196 226 4,200 2,520 Climbing Cleveland Center
10:44AM 42.0914 -83.3422 174° South 270 311 6,600 2,640 Climbing Cleveland Center
10:44AM 42.0597 -83.2708 121° Southeast 296 341 8,900 1,980 Climbing Cleveland Center
10:45AM 42.0811 -83.1569 76° East 339 390 10,100 960 Climbing Cleveland Center
10:46AM 42.1250 -83.0553 60° Northeast 358 412 10,900 1,200 Climbing Cleveland Center
10:47AM 42.1756 -82.9311 61° Northeast 358 412 12,600 1,680 Climbing Cleveland Center
10:48AM 42.2283 -82.7983 62° Northeast 378 435 14,300 1,800 Climbing Cleveland Center
10:49AM 42.2747 -82.6514 67° East 399 459 16,200 1,800 Climbing Cleveland Center
10:50AM 42.2733 -82.4942 91° East 400 460 17,900 1,740 Climbing Cleveland Center
10:51AM 42.2717 -82.3397 91° East 405 466 19,700 1,380 Climbing Cleveland Center
10:52AM 42.2697 -82.1797 91° East 412 474 20,700 1,080 Climbing Cleveland Center
10:53AM 42.2678 -82.0169 91° East 429 494 21,900 1,320 Climbing Cleveland Center
10:54AM 42.2656 -81.8542 91° East 435 501 23,400 1,500 Climbing Cleveland Center
10:55AM 42.2631 -81.6914 91° East 440 506 25,000 1,500 Climbing Cleveland Center
10:56AM 42.2583 -81.5144 92° East 440 506 26,500 1,380 Climbing Cleveland Center
10:57AM 42.2556 -81.3519 91° East 435 501 27,800 1,140 Climbing Cleveland Center
10:58AM 42.2522 -81.1892 92° East 435 501 28,800 900 Climbing Cleveland Center
10:59AM 42.2489 -81.0208 91° East 435 501 29,700 780 Climbing Cleveland Center
11:00AM 42.2431 -80.8497 93° East 448 516 30,400 600 Climbing Cleveland Center
11:01AM 42.2392 -80.6814 92° East 454 522 31,000 300 Climbing Cleveland Center
11:02AM 42.2372 -80.5047 91° East 461 531 31,000  Level Cleveland Center
11:03AM 42.2722 -80.3306 75° East 466 536 31,000  Level Cleveland Center
11:04AM 42.3053 -80.1789 74° East 466 536 31,000  Level Cleveland Center
11:05AM 42.3442 -80.0100 73° East 466 536 31,000  Level Cleveland Center
11:06AM 42.3869 -79.8297 72° East 461 531 31,000  Level Cleveland Center
11:07AM 42.4253 -79.6633 73° East 461 531 31,000  Level Cleveland Center
11:08AM 42.4675 -79.4939 71° East 461 531 31,000  Level Cleveland Center
11:09AM 42.5033 -79.3300 73° East 461 531 31,000  Level Cleveland Center
11:10AM 42.5433 -79.1658 72° East 461 531 31,000  Level Cleveland Center
11:11AM 42.5786 -78.9986 74° East 461 531 31,000  Level Cleveland Center
11:12AM 42.6158 -78.8367 73° East 456 525 31,000  Level Cleveland Center
11:13AM 42.6508 -78.6722 74° East 456 525 31,000  Level Cleveland Center
11:14AM 42.6875 -78.5100 73° East 456 525 31,000  Level Cleveland Center
11:15AM 42.7219 -78.3419 74° East 456 525 31,000  Level Cleveland Center
11:16AM 42.7581 -78.1739 74° East 456 525 31,000  Level Cleveland Center
11:17AM 42.7942 -78.0028 74° East 461 531 31,000  Level Cleveland Center
11:18AM 42.8261 -77.8514 74° East 461 531 31,000  Level Cleveland Center
11:19AM 42.8742 -77.6906 68° East 461 531 31,000  Level Cleveland Center
11:20AM 42.9392 -77.5400 59° Northeast 455 524 31,000  Level Cleveland Center
11:23AM 43.1003 -77.1728 59° Northeast 468 539 31,000  Level Boston Center
11:24AM 43.1628 -77.0239 60° Northeast 463 533 31,000  Level Boston Center
11:25AM 43.2294 -76.8692 59° Northeast 463 533 31,000  Level Boston Center
11:26AM 43.2958 -76.7114 60° Northeast 468 539 31,000  Level Boston Center
11:27AM 43.3711 -76.5364 59° Northeast 468 539 31,000  Level Boston Center
11:28AM 43.4369 -76.3808 60° Northeast 468 539 31,000  Level Boston Center
11:29AM 43.5028 -76.2247 60° Northeast 468 539 31,000  Level Boston Center
11:30AM 43.5558 -76.0647 65° Northeast 462 532 31,000  Level Boston Center
11:31AM 43.6089 -75.9042 65° Northeast 462 532 31,000  Level Boston Center
11:32AM 43.6614 -75.7494 65° Northeast 457 526 31,000  Level Boston Center
11:33AM 43.7117 -75.5911 66° East 452 520 31,000 -480 Level Boston Center
11:34AM 43.7639 -75.4300 66° East 452 520 30,100 -1,500 Descending Boston Center
11:35AM 43.8181 -75.2686 65° Northeast 452 520 28,000 -2,100 Descending Boston Center
11:36AM 43.8700 -75.1069 66° East 452 520 26,000 -1,860 Descending Boston Center
11:37AM 43.9106 -74.9706 68° East 446 513 24,400 -1,800 Descending Boston Center
11:38AM 43.9597 -74.8167 66° East 436 502 22,400 -2,040 Descending Boston Center
11:39AM 44.0064 -74.6683 66° East 426 490 20,400 -1,200 Descending Boston Center
11:40AM 44.0508 -74.5256 67° East 414 476 20,000 -600 Descending Boston Center
11:41AM 44.0969 -74.3856 65° Northeast 407 468 19,300 -960 Descending Boston Center
11:42AM 44.1431 -74.2339 67° East 407 468 18,100 -1,740 Descending Boston Center
11:43AM 44.1664 -74.0694 79° East 401 461 15,900 -2,220 Descending Boston Center
11:44AM 44.1789 -73.9281 83° East 382 440 13,700 -2,220 Descending Boston Center
11:45AM 44.1931 -73.7953 81° East 359 413 11,500 -1,380 Descending Boston Center
11:46AM 44.2381 -73.6775 62° Northeast 335 386 11,000 -660 Descending Boston Center
11:47AM 44.3036 -73.5772 48° Northeast 335 386 10,300 -1,140 Descending Boston Center
11:48AM 44.3689 -73.5058 38° Northeast 314 361 8,800 -1,800 Descending Boston Center
11:49AM 44.4361 -73.4461 32° Northeast 295 339 6,700 -1,860 Descending Boston Center
11:50AM 44.5011 -73.4064 24° Northeast 272 313 5,100 -1,560 Descending Boston Center
11:51AM 44.5556 -73.3753 22° Northeast 239 275 3,600 -1,500 Descending Boston Center